sensor_id;sensor_type;location;lat;lon;timestamp;pressure;altitude;pressure_sealevel;temperature;humidity
13695;BME280;6919;52.344;14.518;2024-02-28T00:02:08;100882.78;;;8.45;100.00
13695;BME280;6919;52.344;14.518;2024-02-28T00:04:40;100878.13;;;8.47;100.00
13695;BME280;6919;52.344;14.518;2024-02-28T00:07:09;100883.69;;;8.34;100.00
13695;BME280;6919;52.344;14.518;2024-02-28T00:09:38;100882.41;;;8.29;100.00
13695;BME280;6919;52.344;14.518;2024-02-28T00:12:07;100870.97;;;8.17;100.00
13695;BME280;6919;52.344;14.518;2024-02-28T00:14:35;100872.03;;;8.26;100.00
13695;BME280;6919;52.344;14.518;2024-02-28T00:17:05;100874.31;;;8.40;100.00
13695;BME280;6919;52.344;14.518;2024-02-28T00:19:36;100869.91;;;8.29;100.00
13695;BME280;6919;52.344;14.518;2024-02-28T00:22:04;100881.28;;;8.52;100.00
13695;BME280;6919;52.344;14.518;2024-02-28T00:24:33;100886.13;;;8.37;100.00
13695;BME280;6919;52.344;14.518;2024-02-28T00:27:01;100878.06;;;8.28;100.00
13695;BME280;6919;52.344;14.518;2024-02-28T00:29:30;100879.66;;;8.40;100.00
13695;BME280;6919;52.344;14.518;2024-02-28T00:31:58;100877.97;;;8.39;100.00
13695;BME280;6919;52.344;14.518;2024-02-28T00:34:26;100883.06;;;8.42;100.00
13695;BME280;6919;52.344;14.518;2024-02-28T00:36:56;100889.28;;;8.52;100.00
13695;BME280;6919;52.344;14.518;2024-02-28T00:39:25;100883.91;;;8.22;100.00
13695;BME280;6919;52.344;14.518;2024-02-28T00:41:53;100879.09;;;8.16;100.00
13695;BME280;6919;52.344;14.518;2024-02-28T00:44:22;100875.81;;;8.12;100.00
13695;BME280;6919;52.344;14.518;2024-02-28T00:46:50;100875.19;;;8.20;100.00
13695;BME280;6919;52.344;14.518;2024-02-28T00:49:19;100886.59;;;8.22;100.00
13695;BME280;6919;52.344;14.518;2024-02-28T00:51:47;100893.66;;;8.23;100.00
13695;BME280;6919;52.344;14.518;2024-02-28T00:54:17;100892.19;;;8.19;100.00
13695;BME280;6919;52.344;14.518;2024-02-28T00:56:45;100883.13;;;8.31;100.00
13695;BME280;6919;52.344;14.518;2024-02-28T00:59:14;100889.59;;;8.28;100.00
13695;BME280;6919;52.344;14.518;2024-02-28T01:01:42;100890.56;;;8.27;100.00
13695;BME280;6919;52.344;14.518;2024-02-28T01:04:11;100885.22;;;8.27;100.00
13695;BME280;6919;52.344;14.518;2024-02-28T01:06:39;100884.88;;;8.21;100.00
13695;BME280;6919;52.344;14.518;2024-02-28T01:09:08;100887.81;;;8.18;100.00
13695;BME280;6919;52.344;14.518;2024-02-28T01:11:37;100893.69;;;8.12;100.00
13695;BME280;6919;52.344;14.518;2024-02-28T01:14:06;100886.59;;;8.22;100.00
13695;BME280;6919;52.344;14.518;2024-02-28T01:16:34;100889.25;;;8.22;100.00
13695;BME280;6919;52.344;14.518;2024-02-28T01:19:02;100889.53;;;8.19;100.00
13695;BME280;6919;52.344;14.518;2024-02-28T01:21:31;100894.81;;;8.30;100.00
13695;BME280;6919;52.344;14.518;2024-02-28T01:24:00;100895.50;;;8.32;100.00
13695;BME280;6919;52.344;14.518;2024-02-28T01:26:29;100896.22;;;8.13;100.00
13695;BME280;6919;52.344;14.518;2024-02-28T01:28:58;100894.91;;;8.08;100.00
13695;BME280;6919;52.344;14.518;2024-02-28T01:31:27;100892.97;;;8.10;100.00
13695;BME280;6919;52.344;14.518;2024-02-28T01:33:55;100894.09;;;8.07;100.00
13695;BME280;6919;52.344;14.518;2024-02-28T01:36:24;100890.47;;;8.18;100.00
13695;BME280;6919;52.344;14.518;2024-02-28T01:38:53;100890.50;;;7.97;100.00
13695;BME280;6919;52.344;14.518;2024-02-28T01:41:22;100897.06;;;8.14;100.00
13695;BME280;6919;52.344;14.518;2024-02-28T01:43:51;100890.84;;;8.24;100.00
13695;BME280;6919;52.344;14.518;2024-02-28T01:46:26;100890.97;;;8.23;100.00
13695;BME280;6919;52.344;14.518;2024-02-28T01:48:55;100896.81;;;8.17;100.00
13695;BME280;6919;52.344;14.518;2024-02-28T01:51:26;100886.19;;;8.06;100.00
13695;BME280;6919;52.344;14.518;2024-02-28T01:53:56;100882.28;;;8.10;100.00
13695;BME280;6919;52.344;14.518;2024-02-28T01:56:25;100878.38;;;8.14;100.00
13695;BME280;6919;52.344;14.518;2024-02-28T01:58:55;100885.28;;;7.96;100.00
13695;BME280;6919;52.344;14.518;2024-02-28T02:01:26;100884.19;;;7.98;100.00
13695;BME280;6919;52.344;14.518;2024-02-28T02:03:55;100882.81;;;8.04;100.00
13695;BME280;6919;52.344;14.518;2024-02-28T02:06:24;100883.13;;;7.90;100.00
13695;BME280;6919;52.344;14.518;2024-02-28T02:08:53;100889.00;;;8.04;100.00
13695;BME280;6919;52.344;14.518;2024-02-28T02:11:22;100889.31;;;8.11;100.00
13695;BME280;6919;52.344;14.518;2024-02-28T02:13:52;100882.84;;;8.13;100.00
13695;BME280;6919;52.344;14.518;2024-02-28T02:16:21;100886.16;;;7.96;100.00
13695;BME280;6919;52.344;14.518;2024-02-28T02:18:55;100885.53;;;7.93;100.00
13695;BME280;6919;52.344;14.518;2024-02-28T02:21:30;100879.63;;;7.89;100.00
13695;BME280;6919;52.344;14.518;2024-02-28T02:24:00;100882.66;;;8.05;100.00
13695;BME280;6919;52.344;14.518;2024-02-28T02:26:28;100888.47;;;7.90;100.00
13695;BME280;6919;52.344;14.518;2024-02-28T02:28:57;100897.72;;;7.86;100.00
13695;BME280;6919;52.344;14.518;2024-02-28T02:31:25;100889.31;;;7.90;100.00
13695;BME280;6919;52.344;14.518;2024-02-28T02:33:54;100880.59;;;7.88;100.00
13695;BME280;6919;52.344;14.518;2024-02-28T02:36:22;100877.16;;;7.97;100.00
13695;BME280;6919;52.344;14.518;2024-02-28T02:38:50;100881.84;;;8.05;100.00
13695;BME280;6919;52.344;14.518;2024-02-28T02:41:20;100888.88;;;8.06;100.00
13695;BME280;6919;52.344;14.518;2024-02-28T02:43:48;100894.97;;;7.97;100.00
13695;BME280;6919;52.344;14.518;2024-02-28T02:46:17;100891.97;;;8.11;100.00
13695;BME280;6919;52.344;14.518;2024-02-28T02:48:45;100894.59;;;8.01;100.00
13695;BME280;6919;52.344;14.518;2024-02-28T02:51:13;100899.09;;;8.01;100.00
13695;BME280;6919;52.344;14.518;2024-02-28T02:53:45;100899.28;;;7.88;100.00
13695;BME280;6919;52.344;14.518;2024-02-28T02:56:14;100893.31;;;7.96;100.00
13695;BME280;6919;52.344;14.518;2024-02-28T02:58:43;100888.00;;;8.05;100.00
13695;BME280;6919;52.344;14.518;2024-02-28T03:01:12;100893.38;;;7.85;100.00
13695;BME280;6919;52.344;14.518;2024-02-28T03:03:40;100894.16;;;7.96;100.00
13695;BME280;6919;52.344;14.518;2024-02-28T03:06:09;100901.50;;;8.04;100.00
13695;BME280;6919;52.344;14.518;2024-02-28T03:08:38;100898.50;;;7.97;100.00
13695;BME280;6919;52.344;14.518;2024-02-28T03:11:06;100899.03;;;7.91;100.00
13695;BME280;6919;52.344;14.518;2024-02-28T03:13:36;100900.19;;;7.98;100.00
13695;BME280;6919;52.344;14.518;2024-02-28T03:16:06;100901.88;;;7.79;100.00
13695;BME280;6919;52.344;14.518;2024-02-28T03:18:35;100904.28;;;7.82;100.00
13695;BME280;6919;52.344;14.518;2024-02-28T03:21:03;100897.47;;;7.89;100.00
13695;BME280;6919;52.344;14.518;2024-02-28T03:23:32;100895.66;;;7.89;100.00
13695;BME280;6919;52.344;14.518;2024-02-28T03:26:03;100898.19;;;7.91;100.00
13695;BME280;6919;52.344;14.518;2024-02-28T03:28:31;100902.06;;;7.87;100.00
13695;BME280;6919;52.344;14.518;2024-02-28T03:31:00;100894.59;;;8.01;100.00
13695;BME280;6919;52.344;14.518;2024-02-28T03:33:30;100894.06;;;7.87;100.00
13695;BME280;6919;52.344;14.518;2024-02-28T03:36:00;100894.78;;;7.89;100.00
13695;BME280;6919;52.344;14.518;2024-02-28T03:38:28;100897.34;;;7.90;100.00
13695;BME280;6919;52.344;14.518;2024-02-28T03:40:56;100899.81;;;7.82;100.00
13695;BME280;6919;52.344;14.518;2024-02-28T03:43:25;100907.88;;;7.92;100.00
13695;BME280;6919;52.344;14.518;2024-02-28T03:45:53;100907.81;;;8.03;100.00
13695;BME280;6919;52.344;14.518;2024-02-28T03:48:22;100906.13;;;8.02;100.00
13695;BME280;6919;52.344;14.518;2024-02-28T03:50:51;100893.56;;;7.93;100.00
13695;BME280;6919;52.344;14.518;2024-02-28T03:53:19;100903.25;;;7.94;100.00
13695;BME280;6919;52.344;14.518;2024-02-28T03:55:48;100901.75;;;8.01;100.00
13695;BME280;6919;52.344;14.518;2024-02-28T03:58:16;100911.84;;;7.97;100.00
13695;BME280;6919;52.344;14.518;2024-02-28T04:00:44;100901.56;;;7.93;100.00
13695;BME280;6919;52.344;14.518;2024-02-28T04:03:14;100903.13;;;7.95;100.00
13695;BME280;6919;52.344;14.518;2024-02-28T04:05:42;100914.41;;;7.99;100.00
13695;BME280;6919;52.344;14.518;2024-02-28T04:08:12;100911.00;;;7.97;100.00
13695;BME280;6919;52.344;14.518;2024-02-28T04:10:39;100919.28;;;7.94;100.00
13695;BME280;6919;52.344;14.518;2024-02-28T04:13:07;100922.91;;;7.93;100.00
13695;BME280;6919;52.344;14.518;2024-02-28T04:15:36;100922.72;;;7.85;100.00
13695;BME280;6919;52.344;14.518;2024-02-28T04:18:05;100926.09;;;7.87;100.00
13695;BME280;6919;52.344;14.518;2024-02-28T04:20:33;100944.59;;;7.99;100.00
13695;BME280;6919;52.344;14.518;2024-02-28T04:23:02;100948.94;;;7.80;100.00
13695;BME280;6919;52.344;14.518;2024-02-28T04:25:31;100946.75;;;7.85;100.00
13695;BME280;6919;52.344;14.518;2024-02-28T04:28:01;100945.78;;;7.86;100.00
13695;BME280;6919;52.344;14.518;2024-02-28T04:30:29;100947.44;;;7.98;100.00
13695;BME280;6919;52.344;14.518;2024-02-28T04:32:58;100949.88;;;7.90;100.00
13695;BME280;6919;52.344;14.518;2024-02-28T04:35:26;100946.25;;;7.91;100.00
13695;BME280;6919;52.344;14.518;2024-02-28T04:37:54;100958.28;;;7.85;100.00
13695;BME280;6919;52.344;14.518;2024-02-28T04:40:23;100954.34;;;7.69;100.00
13695;BME280;6919;52.344;14.518;2024-02-28T04:42:52;100964.56;;;7.64;100.00
13695;BME280;6919;52.344;14.518;2024-02-28T04:45:21;100967.19;;;7.75;100.00
13695;BME280;6919;52.344;14.518;2024-02-28T04:47:49;100966.81;;;7.79;100.00
13695;BME280;6919;52.344;14.518;2024-02-28T04:50:19;100965.13;;;7.78;100.00
13695;BME280;6919;52.344;14.518;2024-02-28T04:52:47;100957.69;;;7.82;100.00
13695;BME280;6919;52.344;14.518;2024-02-28T04:55:15;100957.56;;;7.52;100.00
13695;BME280;6919;52.344;14.518;2024-02-28T04:57:44;100967.34;;;7.62;100.00
13695;BME280;6919;52.344;14.518;2024-02-28T05:00:14;100963.13;;;7.60;100.00
13695;BME280;6919;52.344;14.518;2024-02-28T05:02:43;100965.50;;;7.74;100.00
13695;BME280;6919;52.344;14.518;2024-02-28T05:05:11;100967.91;;;7.77;100.00
13695;BME280;6919;52.344;14.518;2024-02-28T05:07:40;100970.75;;;7.64;100.00
13695;BME280;6919;52.344;14.518;2024-02-28T05:10:09;100967.50;;;7.81;100.00
13695;BME280;6919;52.344;14.518;2024-02-28T05:12:37;100969.47;;;7.79;100.00
13695;BME280;6919;52.344;14.518;2024-02-28T05:15:06;100970.41;;;7.89;100.00
13695;BME280;6919;52.344;14.518;2024-02-28T05:17:36;100978.53;;;7.88;100.00
13695;BME280;6919;52.344;14.518;2024-02-28T05:20:06;100982.16;;;7.87;100.00
13695;BME280;6919;52.344;14.518;2024-02-28T05:22:35;100988.88;;;7.81;100.00
13695;BME280;6919;52.344;14.518;2024-02-28T05:25:05;100988.28;;;7.78;100.00
13695;BME280;6919;52.344;14.518;2024-02-28T05:27:33;100988.63;;;7.84;100.00
13695;BME280;6919;52.344;14.518;2024-02-28T05:30:03;100989.94;;;7.90;100.00
13695;BME280;6919;52.344;14.518;2024-02-28T05:32:32;100989.81;;;7.91;100.00
13695;BME280;6919;52.344;14.518;2024-02-28T05:35:03;100993.78;;;7.97;100.00
13695;BME280;6919;52.344;14.518;2024-02-28T05:37:31;100987.97;;;7.92;100.00
13695;BME280;6919;52.344;14.518;2024-02-28T05:39:59;101000.09;;;7.96;100.00
13695;BME280;6919;52.344;14.518;2024-02-28T05:42:28;101001.72;;;7.87;100.00
13695;BME280;6919;52.344;14.518;2024-02-28T05:44:56;100995.75;;;7.95;100.00
13695;BME280;6919;52.344;14.518;2024-02-28T05:47:24;100994.44;;;7.89;100.00
13695;BME280;6919;52.344;14.518;2024-02-28T05:49:52;101005.28;;;7.77;100.00
13695;BME280;6919;52.344;14.518;2024-02-28T05:52:24;101014.81;;;7.90;100.00
13695;BME280;6919;52.344;14.518;2024-02-28T05:54:54;101021.59;;;7.94;100.00
13695;BME280;6919;52.344;14.518;2024-02-28T05:57:22;101024.75;;;7.88;100.00
13695;BME280;6919;52.344;14.518;2024-02-28T05:59:51;101032.50;;;7.91;100.00
13695;BME280;6919;52.344;14.518;2024-02-28T06:02:19;101032.34;;;8.04;100.00
13695;BME280;6919;52.344;14.518;2024-02-28T06:04:47;101039.91;;;7.99;100.00
13695;BME280;6919;52.344;14.518;2024-02-28T06:07:16;101041.00;;;7.96;100.00
13695;BME280;6919;52.344;14.518;2024-02-28T06:09:45;101044.13;;;8.01;100.00
13695;BME280;6919;52.344;14.518;2024-02-28T06:12:14;101052.06;;;7.92;100.00
13695;BME280;6919;52.344;14.518;2024-02-28T06:14:42;101050.72;;;7.97;100.00
13695;BME280;6919;52.344;14.518;2024-02-28T06:17:10;101053.66;;;8.15;100.00
13695;BME280;6919;52.344;14.518;2024-02-28T06:19:39;101053.53;;;7.85;100.00
13695;BME280;6919;52.344;14.518;2024-02-28T06:22:07;101053.50;;;7.96;100.00
13695;BME280;6919;52.344;14.518;2024-02-28T06:24:36;101064.19;;;7.96;100.00
13695;BME280;6919;52.344;14.518;2024-02-28T06:27:06;101064.44;;;7.93;100.00
13695;BME280;6919;52.344;14.518;2024-02-28T06:29:39;101070.38;;;7.96;100.00
13695;BME280;6919;52.344;14.518;2024-02-28T06:32:07;101068.03;;;8.03;100.00
13695;BME280;6919;52.344;14.518;2024-02-28T06:34:36;101068.13;;;7.81;100.00
13695;BME280;6919;52.344;14.518;2024-02-28T06:37:04;101076.34;;;7.89;100.00
13695;BME280;6919;52.344;14.518;2024-02-28T06:39:32;101076.44;;;7.98;100.00
13695;BME280;6919;52.344;14.518;2024-02-28T06:42:00;101075.34;;;7.90;100.00
13695;BME280;6919;52.344;14.518;2024-02-28T06:44:30;101079.38;;;7.84;100.00
13695;BME280;6919;52.344;14.518;2024-02-28T06:46:58;101080.25;;;7.85;100.00
13695;BME280;6919;52.344;14.518;2024-02-28T06:49:27;101088.94;;;7.87;100.00
13695;BME280;6919;52.344;14.518;2024-02-28T06:51:55;101081.72;;;7.78;100.00
13695;BME280;6919;52.344;14.518;2024-02-28T06:54:26;101086.31;;;7.76;100.00
13695;BME280;6919;52.344;14.518;2024-02-28T06:56:55;101081.59;;;7.79;100.00
13695;BME280;6919;52.344;14.518;2024-02-28T06:59:23;101080.59;;;7.80;100.00
13695;BME280;6919;52.344;14.518;2024-02-28T07:01:53;101087.06;;;7.78;100.00
13695;BME280;6919;52.344;14.518;2024-02-28T07:04:21;101083.16;;;7.82;100.00
13695;BME280;6919;52.344;14.518;2024-02-28T07:06:49;101086.56;;;7.73;100.00
13695;BME280;6919;52.344;14.518;2024-02-28T07:09:18;101088.97;;;7.76;100.00
13695;BME280;6919;52.344;14.518;2024-02-28T07:11:46;101091.38;;;7.90;100.00
13695;BME280;6919;52.344;14.518;2024-02-28T07:14:14;101098.19;;;7.83;100.00
13695;BME280;6919;52.344;14.518;2024-02-28T07:16:44;101095.16;;;7.87;100.00
13695;BME280;6919;52.344;14.518;2024-02-28T07:19:14;101106.94;;;7.85;100.00
13695;BME280;6919;52.344;14.518;2024-02-28T07:21:42;101115.31;;;7.80;100.00
13695;BME280;6919;52.344;14.518;2024-02-28T07:24:11;101118.72;;;7.82;100.00
13695;BME280;6919;52.344;14.518;2024-02-28T07:26:39;101116.03;;;7.93;100.00
13695;BME280;6919;52.344;14.518;2024-02-28T07:29:08;101124.03;;;7.93;100.00
13695;BME280;6919;52.344;14.518;2024-02-28T07:31:36;101128.53;;;7.82;100.00
13695;BME280;6919;52.344;14.518;2024-02-28T07:34:04;101135.53;;;7.94;100.00
13695;BME280;6919;52.344;14.518;2024-02-28T07:36:34;101133.81;;;8.04;100.00
13695;BME280;6919;52.344;14.518;2024-02-28T07:39:03;101133.00;;;8.03;100.00
13695;BME280;6919;52.344;14.518;2024-02-28T07:41:31;101132.41;;;7.89;100.00
13695;BME280;6919;52.344;14.518;2024-02-28T07:43:59;101138.13;;;7.84;100.00
13695;BME280;6919;52.344;14.518;2024-02-28T07:46:28;101142.69;;;8.04;100.00
13695;BME280;6919;52.344;14.518;2024-02-28T07:48:56;101143.28;;;8.08;100.00
13695;BME280;6919;52.344;14.518;2024-02-28T07:51:25;101145.25;;;8.06;100.00
13695;BME280;6919;52.344;14.518;2024-02-28T07:53:55;101148.22;;;7.81;100.00
13695;BME280;6919;52.344;14.518;2024-02-28T07:56:23;101145.28;;;7.95;100.00
13695;BME280;6919;52.344;14.518;2024-02-28T07:58:51;101143.31;;;7.97;100.00
13695;BME280;6919;52.344;14.518;2024-02-28T08:01:19;101137.41;;;7.82;100.00
13695;BME280;6919;52.344;14.518;2024-02-28T08:03:49;101143.97;;;7.78;100.00
13695;BME280;6919;52.344;14.518;2024-02-28T08:06:17;101145.03;;;7.76;100.00
13695;BME280;6919;52.344;14.518;2024-02-28T08:08:46;101148.06;;;7.93;100.00
13695;BME280;6919;52.344;14.518;2024-02-28T08:11:15;101154.72;;;7.99;100.00
13695;BME280;6919;52.344;14.518;2024-02-28T08:13:45;101150.84;;;8.03;100.00
13695;BME280;6919;52.344;14.518;2024-02-28T08:16:14;101152.41;;;8.05;100.00
13695;BME280;6919;52.344;14.518;2024-02-28T08:18:42;101145.22;;;8.17;100.00
13695;BME280;6919;52.344;14.518;2024-02-28T08:21:11;101148.78;;;7.84;100.00
13695;BME280;6919;52.344;14.518;2024-02-28T08:23:39;101156.06;;;8.04;100.00
13695;BME280;6919;52.344;14.518;2024-02-28T08:26:08;101150.22;;;8.10;100.00
13695;BME280;6919;52.344;14.518;2024-02-28T08:28:38;101148.50;;;8.31;100.00
13695;BME280;6919;52.344;14.518;2024-02-28T08:31:06;101153.44;;;8.36;100.00
13695;BME280;6919;52.344;14.518;2024-02-28T08:33:34;101150.91;;;8.23;100.00
13695;BME280;6919;52.344;14.518;2024-02-28T08:36:03;101156.03;;;8.26;100.00
13695;BME280;6919;52.344;14.518;2024-02-28T08:38:32;101154.13;;;7.95;100.00
13695;BME280;6919;52.344;14.518;2024-02-28T08:41:01;101154.91;;;8.18;100.00
13695;BME280;6919;52.344;14.518;2024-02-28T08:43:30;101150.72;;;8.04;100.00
13695;BME280;6919;52.344;14.518;2024-02-28T08:45:59;101156.91;;;8.05;100.00
13695;BME280;6919;52.344;14.518;2024-02-28T08:48:28;101159.31;;;8.19;100.00
13695;BME280;6919;52.344;14.518;2024-02-28T08:50:56;101159.91;;;8.22;100.00
13695;BME280;6919;52.344;14.518;2024-02-28T08:53:24;101160.88;;;8.32;100.00
13695;BME280;6919;52.344;14.518;2024-02-28T08:55:52;101161.19;;;8.39;100.00
13695;BME280;6919;52.344;14.518;2024-02-28T08:58:20;101152.56;;;8.46;100.00
13695;BME280;6919;52.344;14.518;2024-02-28T09:00:49;101164.31;;;8.55;100.00
13695;BME280;6919;52.344;14.518;2024-02-28T09:03:18;101163.75;;;8.72;100.00
13695;BME280;6919;52.344;14.518;2024-02-28T09:05:49;101165.72;;;8.38;100.00
13695;BME280;6919;52.344;14.518;2024-02-28T09:08:18;101170.38;;;8.57;100.00
13695;BME280;6919;52.344;14.518;2024-02-28T09:10:46;101166.91;;;8.45;100.00
13695;BME280;6919;52.344;14.518;2024-02-28T09:13:14;101169.59;;;8.45;100.00
13695;BME280;6919;52.344;14.518;2024-02-28T09:15:44;101173.41;;;8.84;100.00
13695;BME280;6919;52.344;14.518;2024-02-28T09:18:13;101181.06;;;8.88;100.00
13695;BME280;6919;52.344;14.518;2024-02-28T09:20:43;101175.47;;;8.80;100.00
13695;BME280;6919;52.344;14.518;2024-02-28T09:23:11;101185.28;;;8.91;100.00
13695;BME280;6919;52.344;14.518;2024-02-28T09:25:41;101188.94;;;8.58;100.00
13695;BME280;6919;52.344;14.518;2024-02-28T09:28:09;101185.47;;;8.78;100.00
13695;BME280;6919;52.344;14.518;2024-02-28T09:30:40;101188.91;;;8.69;100.00
13695;BME280;6919;52.344;14.518;2024-02-28T09:33:18;101185.91;;;8.83;100.00
13695;BME280;6919;52.344;14.518;2024-02-28T09:35:49;101186.63;;;8.65;100.00
13695;BME280;6919;52.344;14.518;2024-02-28T09:38:18;101192.81;;;8.65;100.00
13695;BME280;6919;52.344;14.518;2024-02-28T09:40:47;101191.81;;;8.98;100.00
13695;BME280;6919;52.344;14.518;2024-02-28T09:43:26;101194.16;;;8.60;100.00
13695;BME280;6919;52.344;14.518;2024-02-28T09:46:00;101198.97;;;8.77;100.00
13695;BME280;6919;52.344;14.518;2024-02-28T09:48:31;101191.63;;;8.58;100.00
13695;BME280;6919;52.344;14.518;2024-02-28T09:51:01;101193.84;;;9.06;100.00
13695;BME280;6919;52.344;14.518;2024-02-28T09:53:29;101206.44;;;8.94;100.00
13695;BME280;6919;52.344;14.518;2024-02-28T09:55:58;101206.34;;;8.84;100.00
13695;BME280;6919;52.344;14.518;2024-02-28T09:58:28;101208.88;;;8.23;100.00
13695;BME280;6919;52.344;14.518;2024-02-28T10:01:02;101212.44;;;8.55;100.00
13695;BME280;6919;52.344;14.518;2024-02-28T10:03:31;101212.22;;;8.78;100.00
13695;BME280;6919;52.344;14.518;2024-02-28T10:06:01;101206.63;;;9.02;100.00
13695;BME280;6919;52.344;14.518;2024-02-28T10:08:32;101213.91;;;9.00;100.00
13695;BME280;6919;52.344;14.518;2024-02-28T10:11:01;101207.06;;;9.07;100.00
13695;BME280;6919;52.344;14.518;2024-02-28T10:13:30;101208.91;;;9.07;100.00
13695;BME280;6919;52.344;14.518;2024-02-28T10:15:58;101210.78;;;8.95;100.00
13695;BME280;6919;52.344;14.518;2024-02-28T10:18:27;101212.97;;;9.01;100.00
13695;BME280;6919;52.344;14.518;2024-02-28T10:20:55;101210.34;;;9.11;100.00
13695;BME280;6919;52.344;14.518;2024-02-28T10:23:26;101210.72;;;9.06;100.00
13695;BME280;6919;52.344;14.518;2024-02-28T10:25:54;101212.91;;;9.12;100.00
13695;BME280;6919;52.344;14.518;2024-02-28T10:28:24;101213.47;;;9.16;100.00
13695;BME280;6919;52.344;14.518;2024-02-28T10:30:54;101209.44;;;9.42;100.00
13695;BME280;6919;52.344;14.518;2024-02-28T10:33:27;101209.56;;;9.40;100.00
13695;BME280;6919;52.344;14.518;2024-02-28T10:35:56;101212.63;;;9.36;100.00
13695;BME280;6919;52.344;14.518;2024-02-28T10:38:27;101218.19;;;9.23;100.00
13695;BME280;6919;52.344;14.518;2024-02-28T10:40:56;101218.38;;;9.52;100.00
13695;BME280;6919;52.344;14.518;2024-02-28T10:43:28;101217.34;;;9.43;100.00
13695;BME280;6919;52.344;14.518;2024-02-28T10:45:58;101219.28;;;9.21;100.00
13695;BME280;6919;52.344;14.518;2024-02-28T10:48:29;101229.13;;;9.20;100.00
13695;BME280;6919;52.344;14.518;2024-02-28T10:50:58;101230.00;;;9.21;100.00
13695;BME280;6919;52.344;14.518;2024-02-28T10:53:36;101237.41;;;9.17;100.00
13695;BME280;6919;52.344;14.518;2024-02-28T10:56:09;101235.91;;;9.03;100.00
13695;BME280;6919;52.344;14.518;2024-02-28T10:58:51;101239.44;;;9.04;100.00
13695;BME280;6919;52.344;14.518;2024-02-28T11:01:20;101235.78;;;9.05;100.00
13695;BME280;6919;52.344;14.518;2024-02-28T11:03:50;101239.34;;;8.94;100.00
13695;BME280;6919;52.344;14.518;2024-02-28T11:06:21;101247.19;;;9.07;100.00
13695;BME280;6919;52.344;14.518;2024-02-28T11:08:53;101252.28;;;8.89;100.00
13695;BME280;6919;52.344;14.518;2024-02-28T11:11:23;101251.78;;;9.16;100.00
13695;BME280;6919;52.344;14.518;2024-02-28T11:13:52;101245.38;;;9.28;100.00
13695;BME280;6919;52.344;14.518;2024-02-28T11:16:29;101250.66;;;9.19;100.00
13695;BME280;6919;52.344;14.518;2024-02-28T11:18:59;101246.75;;;9.23;100.00
13695;BME280;6919;52.344;14.518;2024-02-28T11:21:29;101243.81;;;9.26;100.00
13695;BME280;6919;52.344;14.518;2024-02-28T11:24:00;101245.84;;;9.33;100.00
13695;BME280;6919;52.344;14.518;2024-02-28T11:26:28;101250.59;;;9.09;100.00
13695;BME280;6919;52.344;14.518;2024-02-28T11:28:57;101258.06;;;9.47;100.00
13695;BME280;6919;52.344;14.518;2024-02-28T11:31:25;101260.81;;;9.36;100.00
13695;BME280;6919;52.344;14.518;2024-02-28T11:33:54;101267.53;;;9.30;100.00
13695;BME280;6919;52.344;14.518;2024-02-28T11:36:22;101263.78;;;9.42;100.00
13695;BME280;6919;52.344;14.518;2024-02-28T11:38:51;101263.72;;;9.53;100.00
13695;BME280;6919;52.344;14.518;2024-02-28T11:41:27;101266.97;;;9.16;100.00
13695;BME280;6919;52.344;14.518;2024-02-28T11:43:55;101271.00;;;8.89;100.00
13695;BME280;6919;52.344;14.518;2024-02-28T11:46:24;101269.31;;;8.88;100.00
13695;BME280;6919;52.344;14.518;2024-02-28T11:48:53;101276.91;;;9.04;100.00
13695;BME280;6919;52.344;14.518;2024-02-28T11:51:22;101279.59;;;8.61;100.00
13695;BME280;6919;52.344;14.518;2024-02-28T11:53:51;101275.44;;;9.00;100.00
13695;BME280;6919;52.344;14.518;2024-02-28T11:56:19;101286.06;;;8.90;100.00
13695;BME280;6919;52.344;14.518;2024-02-28T11:58:53;101281.53;;;9.02;100.00
13695;BME280;6919;52.344;14.518;2024-02-28T12:01:37;101283.53;;;8.78;100.00
13695;BME280;6919;52.344;14.518;2024-02-28T12:04:06;101283.56;;;8.67;100.00
13695;BME280;6919;52.344;14.518;2024-02-28T12:06:35;101286.66;;;8.94;100.00
13695;BME280;6919;52.344;14.518;2024-02-28T12:09:06;101290.09;;;8.85;100.00
13695;BME280;6919;52.344;14.518;2024-02-28T12:11:37;101295.97;;;8.68;100.00
13695;BME280;6919;52.344;14.518;2024-02-28T12:14:08;101307.41;;;8.59;100.00
13695;BME280;6919;52.344;14.518;2024-02-28T12:16:37;101297.53;;;8.81;100.00
13695;BME280;6919;52.344;14.518;2024-02-28T12:19:08;101296.84;;;8.57;100.00
13695;BME280;6919;52.344;14.518;2024-02-28T12:21:37;101294.69;;;8.40;100.00
13695;BME280;6919;52.344;14.518;2024-02-28T12:24:08;101295.28;;;8.33;100.00
13695;BME280;6919;52.344;14.518;2024-02-28T12:26:38;101285.38;;;8.66;100.00
13695;BME280;6919;52.344;14.518;2024-02-28T12:29:08;101292.09;;;8.72;100.00
13695;BME280;6919;52.344;14.518;2024-02-28T12:31:38;101292.81;;;8.63;100.00
13695;BME280;6919;52.344;14.518;2024-02-28T12:34:06;101294.47;;;8.75;100.00
13695;BME280;6919;52.344;14.518;2024-02-28T12:36:34;101295.22;;;8.77;100.00
13695;BME280;6919;52.344;14.518;2024-02-28T12:39:03;101295.81;;;8.80;100.00
13695;BME280;6919;52.344;14.518;2024-02-28T12:41:33;101297.72;;;8.58;100.00
13695;BME280;6919;52.344;14.518;2024-02-28T12:44:01;101297.03;;;8.76;100.00
13695;BME280;6919;52.344;14.518;2024-02-28T12:46:31;101304.06;;;8.88;100.00
13695;BME280;6919;52.344;14.518;2024-02-28T12:49:00;101304.94;;;8.78;100.00
13695;BME280;6919;52.344;14.518;2024-02-28T12:51:39;101304.22;;;8.76;100.00
13695;BME280;6919;52.344;14.518;2024-02-28T12:54:08;101312.53;;;8.62;100.00
13695;BME280;6919;52.344;14.518;2024-02-28T12:56:38;101313.34;;;8.62;100.00
13695;BME280;6919;52.344;14.518;2024-02-28T12:59:07;101317.88;;;8.51;100.00
13695;BME280;6919;52.344;14.518;2024-02-28T13:01:36;101314.22;;;8.63;100.00